sensor_id;sensor_type;location;lat;lon;timestamp;pressure;altitude;pressure_sealevel;temperature;humidity
58686;BME280;44465;53.206;-6.106;2024-01-15T14:50:24;101337.59;;;20.38;45.73
58686;BME280;44465;53.206;-6.106;2024-01-15T14:52:50;101385.38;;;20.67;45.43
58686;BME280;44465;53.206;-6.106;2024-01-15T14:55:15;101407.81;;;20.85;45.67
58686;BME280;44465;53.206;-6.106;2024-01-15T14:57:41;101408.09;;;20.79;45.38
58686;BME280;44465;53.206;-6.106;2024-01-15T15:00:07;101403.59;;;20.79;45.40
58686;BME280;44465;53.206;-6.106;2024-01-15T15:02:37;101413.25;;;20.83;45.41
58686;BME280;44465;53.206;-6.106;2024-01-15T15:05:03;101411.41;;;20.84;45.57
58686;BME280;44465;53.206;-6.106;2024-01-15T15:07:29;101410.47;;;20.85;45.28
58686;BME280;44465;53.206;-6.106;2024-01-15T15:09:54;101414.91;;;20.86;45.14
58686;BME280;44465;53.206;-6.106;2024-01-15T15:12:20;101414.81;;;20.87;45.28
58686;BME280;44465;53.206;-6.106;2024-01-15T15:14:45;101405.13;;;20.85;45.21
58686;BME280;44465;53.206;-6.106;2024-01-15T15:17:11;101409.63;;;20.84;45.25
58686;BME280;44465;53.206;-6.106;2024-01-15T15:19:37;101419.31;;;20.87;45.44
58686;BME280;44465;53.206;-6.106;2024-01-15T15:22:03;101416.78;;;20.84;45.06
58686;BME280;44465;53.206;-6.106;2024-01-15T15:24:28;101417.69;;;20.83;45.23
58686;BME280;44465;53.206;-6.106;2024-01-15T15:26:54;101413.38;;;20.80;45.11
58686;BME280;44465;53.206;-6.106;2024-01-15T15:29:20;101429.28;;;20.83;45.20
58686;BME280;44465;53.206;-6.106;2024-01-15T15:31:45;101433.75;;;20.83;45.00
58686;BME280;44465;53.206;-6.106;2024-01-15T15:34:11;101412.81;;;20.72;45.22
58686;BME280;44465;53.206;-6.106;2024-01-15T15:36:36;101400.56;;;20.66;45.14
58686;BME280;44465;53.206;-6.106;2024-01-15T15:39:02;101435.50;;;20.84;45.13
58686;BME280;44465;53.206;-6.106;2024-01-15T15:41:27;101394.41;;;20.64;45.05
58686;BME280;44465;53.206;-6.106;2024-01-15T15:43:53;101398.94;;;20.62;45.13
58686;BME280;44465;53.206;-6.106;2024-01-15T15:46:19;101432.75;;;20.85;44.99
58686;BME280;44465;53.206;-6.106;2024-01-15T15:48:45;101435.50;;;20.84;44.97
58686;BME280;44465;53.206;-6.106;2024-01-15T15:51:10;101391.84;;;20.61;44.92
58686;BME280;44465;53.206;-6.106;2024-01-15T15:53:36;101425.72;;;20.83;45.00
58686;BME280;44465;53.206;-6.106;2024-01-15T15:56:01;101413.28;;;20.82;44.87
58686;BME280;44465;53.206;-6.106;2024-01-15T15:58:28;101414.97;;;20.84;44.89
58686;BME280;44465;53.206;-6.106;2024-01-15T16:00:53;101414.09;;;20.84;44.92
58686;BME280;44465;53.206;-6.106;2024-01-15T16:03:19;101413.38;;;20.80;44.82
58686;BME280;44465;53.206;-6.106;2024-01-15T16:05:44;101417.69;;;20.83;44.72
58686;BME280;44465;53.206;-6.106;2024-01-15T16:08:10;101401.22;;;20.71;44.75
58686;BME280;44465;53.206;-6.106;2024-01-15T16:10:36;101378.63;;;20.58;44.90
58686;BME280;44465;53.206;-6.106;2024-01-15T16:13:01;101414.22;;;20.81;44.59
58686;BME280;44465;53.206;-6.106;2024-01-15T16:15:27;101412.44;;;20.81;44.72
58686;BME280;44465;53.206;-6.106;2024-01-15T16:17:53;101409.88;;;20.78;44.72
58686;BME280;44465;53.206;-6.106;2024-01-15T16:20:19;101387.19;;;20.66;44.54
58686;BME280;44465;53.206;-6.106;2024-01-15T16:22:45;101409.16;;;20.74;45.00
58686;BME280;44465;53.206;-6.106;2024-01-15T16:25:12;101407.19;;;20.78;44.77
58686;BME280;44465;53.206;-6.106;2024-01-15T16:27:38;101419.56;;;20.81;44.85
58686;BME280;44465;53.206;-6.106;2024-01-15T16:30:05;101424.94;;;20.81;44.56
58686;BME280;44465;53.206;-6.106;2024-01-15T16:32:32;101422.25;;;20.81;44.63
58686;BME280;44465;53.206;-6.106;2024-01-15T16:34:58;101380.31;;;20.60;44.77
58686;BME280;44465;53.206;-6.106;2024-01-15T16:37:23;101396.81;;;20.70;44.61
58686;BME280;44465;53.206;-6.106;2024-01-15T16:39:49;101421.31;;;20.82;44.37
58686;BME280;44465;53.206;-6.106;2024-01-15T16:42:14;101412.63;;;20.76;44.52
58686;BME280;44465;53.206;-6.106;2024-01-15T16:44:40;101387.41;;;20.61;44.58
58686;BME280;44465;53.206;-6.106;2024-01-15T16:47:05;101433.91;;;20.80;44.71
58686;BME280;44465;53.206;-6.106;2024-01-15T16:49:31;101437.53;;;20.79;44.65
58686;BME280;44465;53.206;-6.106;2024-01-15T16:51:56;101421.84;;;20.69;44.49
58686;BME280;44465;53.206;-6.106;2024-01-15T16:54:22;101442.88;;;20.79;44.54
58686;BME280;44465;53.206;-6.106;2024-01-15T16:56:49;101436.59;;;20.80;44.62
58686;BME280;44465;53.206;-6.106;2024-01-15T16:59:15;101424.53;;;20.69;44.64
58686;BME280;44465;53.206;-6.106;2024-01-15T17:01:41;101419.19;;;20.69;44.51
58686;BME280;44465;53.206;-6.106;2024-01-15T17:04:06;101431.28;;;20.78;44.38
58686;BME280;44465;53.206;-6.106;2024-01-15T17:06:32;101428.91;;;20.70;44.29
58686;BME280;44465;53.206;-6.106;2024-01-15T17:08:58;101442.88;;;20.79;44.53
58686;BME280;44465;53.206;-6.106;2024-01-15T17:11:23;101436.78;;;20.75;44.68
58686;BME280;44465;53.206;-6.106;2024-01-15T17:13:50;101434.91;;;20.77;44.38
58686;BME280;44465;53.206;-6.106;2024-01-15T17:16:16;101433.25;;;20.74;44.42
58686;BME280;44465;53.206;-6.106;2024-01-15T17:18:42;101437.66;;;20.75;44.52
58686;BME280;44465;53.206;-6.106;2024-01-15T17:21:07;101433.16;;;20.76;44.57
58686;BME280;44465;53.206;-6.106;2024-01-15T17:23:33;101426.94;;;20.75;44.35
58686;BME280;44465;53.206;-6.106;2024-01-15T17:25:58;101393.06;;;20.54;44.53
58686;BME280;44465;53.206;-6.106;2024-01-15T17:28:24;101406.94;;;20.64;44.37
58686;BME280;44465;53.206;-6.106;2024-01-15T17:30:51;101412.84;;;20.70;44.92
58686;BME280;44465;53.206;-6.106;2024-01-15T17:33:16;101419.94;;;20.71;44.43
58686;BME280;44465;53.206;-6.106;2024-01-15T17:35:52;101427.03;;;20.72;44.56
58686;BME280;44465;53.206;-6.106;2024-01-15T17:38:19;101411.47;;;20.61;44.43
58686;BME280;44465;53.206;-6.106;2024-01-15T17:40:44;101431.47;;;20.73;44.26
58686;BME280;44465;53.206;-6.106;2024-01-15T17:43:10;101423.44;;;20.73;44.41
58686;BME280;44465;53.206;-6.106;2024-01-15T17:45:35;101419.94;;;20.71;44.33
58686;BME280;44465;53.206;-6.106;2024-01-15T17:48:01;101415.47;;;20.72;44.42
58686;BME280;44465;53.206;-6.106;2024-01-15T17:50:26;101422.63;;;20.71;44.21
58686;BME280;44465;53.206;-6.106;2024-01-15T17:52:52;101425.25;;;20.73;44.27
58686;BME280;44465;53.206;-6.106;2024-01-15T17:55:17;101355.63;;;20.33;44.29
58686;BME280;44465;53.206;-6.106;2024-01-15T17:57:43;101419.19;;;20.69;44.48
58686;BME280;44465;53.206;-6.106;2024-01-15T18:00:09;101416.75;;;20.63;44.26
58686;BME280;44465;53.206;-6.106;2024-01-15T18:02:35;101434.16;;;20.73;44.12
58686;BME280;44465;53.206;-6.106;2024-01-15T18:05:01;101435.06;;;20.72;44.28
58686;BME280;44465;53.206;-6.106;2024-01-15T18:07:26;101442.25;;;20.72;44.44
58686;BME280;44465;53.206;-6.106;2024-01-15T18:09:52;101416.88;;;20.60;44.36
58686;BME280;44465;53.206;-6.106;2024-01-15T18:12:17;101414.88;;;20.65;44.05
58686;BME280;44465;53.206;-6.106;2024-01-15T18:14:43;101406.44;;;20.54;44.14
58686;BME280;44465;53.206;-6.106;2024-01-15T18:17:08;101423.84;;;20.64;44.23
58686;BME280;44465;53.206;-6.106;2024-01-15T18:19:34;101438.84;;;20.68;44.37
58686;BME280;44465;53.206;-6.106;2024-01-15T18:21:59;101423.34;;;20.54;44.73
58686;BME280;44465;53.206;-6.106;2024-01-15T18:24:25;101438.84;;;20.68;44.90
58686;BME280;44465;53.206;-6.106;2024-01-15T18:26:51;101427.03;;;20.72;45.06
58686;BME280;44465;53.206;-6.106;2024-01-15T18:29:18;101422.53;;;20.74;45.39
58686;BME280;44465;53.206;-6.106;2024-01-15T18:31:49;101438.31;;;20.81;45.28
58686;BME280;44465;53.206;-6.106;2024-01-15T18:34:15;101426.47;;;20.86;45.08
58686;BME280;44465;53.206;-6.106;2024-01-15T18:36:41;101426.50;;;21.05;45.20
58686;BME280;44465;53.206;-6.106;2024-01-15T18:39:10;101433.81;;;21.02;45.29
58686;BME280;44465;53.206;-6.106;2024-01-15T18:41:36;101424.03;;;21.01;45.54
58686;BME280;44465;53.206;-6.106;2024-01-15T18:44:02;101424.50;;;21.11;45.67
58686;BME280;44465;53.206;-6.106;2024-01-15T18:46:27;101417.91;;;21.18;45.57
58686;BME280;44465;53.206;-6.106;2024-01-15T18:48:54;101413.25;;;21.02;45.98
58686;BME280;44465;53.206;-6.106;2024-01-15T18:51:20;101417.84;;;21.00;46.01
58686;BME280;44465;53.206;-6.106;2024-01-15T18:53:47;101425.44;;;21.10;46.21
58686;BME280;44465;53.206;-6.106;2024-01-15T18:56:12;101419.34;;;21.06;46.36
58686;BME280;44465;53.206;-6.106;2024-01-15T18:58:38;101431.53;;;21.13;46.57
58686;BME280;44465;53.206;-6.106;2024-01-15T19:01:07;101417.41;;;21.10;46.53
58686;BME280;44465;53.206;-6.106;2024-01-15T19:03:33;101423.16;;;21.21;46.60
58686;BME280;44465;53.206;-6.106;2024-01-15T19:05:58;101420.59;;;21.18;46.50
58686;BME280;44465;53.206;-6.106;2024-01-15T19:08:24;101419.66;;;21.19;46.57
58686;BME280;44465;53.206;-6.106;2024-01-15T19:10:53;101417.50;;;21.27;46.58
58686;BME280;44465;53.206;-6.106;2024-01-15T19:13:24;101396.34;;;21.21;46.33
58686;BME280;44465;53.206;-6.106;2024-01-15T19:15:50;101413.75;;;21.31;46.36
58686;BME280;44465;53.206;-6.106;2024-01-15T19:18:16;101404.31;;;21.22;46.41
58686;BME280;44465;53.206;-6.106;2024-01-15T19:20:42;101414.28;;;21.38;45.90
58686;BME280;44465;53.206;-6.106;2024-01-15T19:23:09;101407.22;;;21.37;46.11
58686;BME280;44465;53.206;-6.106;2024-01-15T19:25:35;101355.22;;;21.22;46.01
58686;BME280;44465;53.206;-6.106;2024-01-15T19:28:02;101402.72;;;21.57;45.69
58686;BME280;44465;53.206;-6.106;2024-01-15T19:30:29;101403.72;;;21.54;45.62
58686;BME280;44465;53.206;-6.106;2024-01-15T19:32:56;101402.16;;;21.50;45.96
58686;BME280;44465;53.206;-6.106;2024-01-15T19:35:21;101389.13;;;21.61;46.03
58686;BME280;44465;53.206;-6.106;2024-01-15T19:37:47;101398.53;;;21.51;46.11
58686;BME280;44465;53.206;-6.106;2024-01-15T19:40:13;101406.56;;;21.51;46.21
58686;BME280;44465;53.206;-6.106;2024-01-15T19:42:40;101384.28;;;21.31;46.37
58686;BME280;44465;53.206;-6.106;2024-01-15T19:45:05;101413.88;;;21.47;46.27
58686;BME280;44465;53.206;-6.106;2024-01-15T19:47:31;101404.25;;;21.43;46.12
58686;BME280;44465;53.206;-6.106;2024-01-15T19:49:57;101419.97;;;21.51;46.24
58686;BME280;44465;53.206;-6.106;2024-01-15T19:52:23;101402.50;;;21.42;46.20
58686;BME280;44465;53.206;-6.106;2024-01-15T19:54:48;101401.78;;;21.38;46.37
58686;BME280;44465;53.206;-6.106;2024-01-15T19:57:14;101406.03;;;21.43;45.96
58686;BME280;44465;53.206;-6.106;2024-01-15T19:59:40;101415.59;;;21.48;45.99
58686;BME280;44465;53.206;-6.106;2024-01-15T20:02:06;101417.72;;;21.42;45.86
58686;BME280;44465;53.206;-6.106;2024-01-15T20:04:32;101408.31;;;21.33;46.25
58686;BME280;44465;53.206;-6.106;2024-01-15T20:06:58;101425.81;;;21.40;46.38
58686;BME280;44465;53.206;-6.106;2024-01-15T20:09:23;101424.97;;;21.39;46.24
58686;BME280;44465;53.206;-6.106;2024-01-15T20:11:49;101422.41;;;21.36;45.86
58686;BME280;44465;53.206;-6.106;2024-01-15T20:14:16;101424.16;;;21.37;46.28
58686;BME280;44465;53.206;-6.106;2024-01-15T20:16:42;101417.13;;;21.35;46.35
58686;BME280;44465;53.206;-6.106;2024-01-15T20:19:07;101399.91;;;21.21;46.28
58686;BME280;44465;53.206;-6.106;2024-01-15T20:21:33;101417.06;;;21.36;46.10
58686;BME280;44465;53.206;-6.106;2024-01-15T20:24:01;101429.66;;;21.34;46.22
58686;BME280;44465;53.206;-6.106;2024-01-15T20:26:26;101418.34;;;21.28;46.22
58686;BME280;44465;53.206;-6.106;2024-01-15T20:28:52;101414.59;;;21.32;46.20
58686;BME280;44465;53.206;-6.106;2024-01-15T20:31:18;101412.00;;;21.30;46.27
58686;BME280;44465;53.206;-6.106;2024-01-15T20:33:43;101404.00;;;21.29;46.35
58686;BME280;44465;53.206;-6.106;2024-01-15T20:36:09;101367.59;;;21.05;46.47
58686;BME280;44465;53.206;-6.106;2024-01-15T20:38:37;101411.06;;;21.31;46.34
58686;BME280;44465;53.206;-6.106;2024-01-15T20:41:05;101410.84;;;21.36;46.31
58686;BME280;44465;53.206;-6.106;2024-01-15T20:43:32;101408.22;;;21.34;46.47
58686;BME280;44465;53.206;-6.106;2024-01-15T20:45:59;101362.16;;;21.07;46.22
58686;BME280;44465;53.206;-6.106;2024-01-15T20:48:26;101405.84;;;21.28;46.32
58686;BME280;44465;53.206;-6.106;2024-01-15T20:50:53;101404.72;;;21.32;46.30
58686;BME280;44465;53.206;-6.106;2024-01-15T20:53:18;101388.75;;;21.31;45.96
58686;BME280;44465;53.206;-6.106;2024-01-15T20:55:44;101402.72;;;21.37;46.18
58686;BME280;44465;53.206;-6.106;2024-01-15T20:58:09;101397.28;;;21.39;46.10
58686;BME280;44465;53.206;-6.106;2024-01-15T21:00:35;101387.88;;;21.30;46.13
58686;BME280;44465;53.206;-6.106;2024-01-15T21:03:01;101399.38;;;21.32;46.19
58686;BME280;44465;53.206;-6.106;2024-01-15T21:05:27;101402.72;;;21.37;46.52
58686;BME280;44465;53.206;-6.106;2024-01-15T21:07:55;101398.38;;;21.35;46.31
58686;BME280;44465;53.206;-6.106;2024-01-15T21:10:20;101404.53;;;21.37;46.44
58686;BME280;44465;53.206;-6.106;2024-01-15T21:12:47;101395.63;;;21.36;46.29
58686;BME280;44465;53.206;-6.106;2024-01-15T21:15:12;101404.53;;;21.37;46.27
58686;BME280;44465;53.206;-6.106;2024-01-15T21:17:38;101371.16;;;18.38;33.98
58686;BME280;44465;53.206;-6.106;2024-01-15T21:20:04;101405.47;;;16.73;34.65
58686;BME280;44465;53.206;-6.106;2024-01-15T21:22:36;101396.69;;;18.70;39.50
58686;BME280;44465;53.206;-6.106;2024-01-15T21:25:02;101361.78;;;19.48;40.23
58686;BME280;44465;53.206;-6.106;2024-01-15T21:27:28;101394.47;;;19.99;41.13
58686;BME280;44465;53.206;-6.106;2024-01-15T21:29:54;101370.38;;;20.01;41.67
58686;BME280;44465;53.206;-6.106;2024-01-15T21:32:20;101354.66;;;19.71;41.86
58686;BME280;44465;53.206;-6.106;2024-01-15T21:34:46;101377.00;;;20.12;41.97
58686;BME280;44465;53.206;-6.106;2024-01-15T21:37:12;101375.97;;;20.58;42.06
58686;BME280;44465;53.206;-6.106;2024-01-15T21:39:38;101364.13;;;20.64;42.65
58686;BME280;44465;53.206;-6.106;2024-01-15T21:42:04;101368.16;;;20.72;42.87
58686;BME280;44465;53.206;-6.106;2024-01-15T21:44:29;101375.38;;;20.70;43.35
58686;BME280;44465;53.206;-6.106;2024-01-15T21:46:55;101356.28;;;20.59;43.73
58686;BME280;44465;53.206;-6.106;2024-01-15T21:49:20;101357.88;;;20.63;43.85
58686;BME280;44465;53.206;-6.106;2024-01-15T21:51:46;101363.97;;;20.67;44.22
58686;BME280;44465;53.206;-6.106;2024-01-15T21:54:11;101357.88;;;20.63;45.09
58686;BME280;44465;53.206;-6.106;2024-01-15T21:56:37;101361.50;;;20.83;45.11
58686;BME280;44465;53.206;-6.106;2024-01-15T21:59:03;101354.78;;;20.72;45.20
58686;BME280;44465;53.206;-6.106;2024-01-15T22:01:29;101353.81;;;20.75;45.27
58686;BME280;44465;53.206;-6.106;2024-01-15T22:03:54;101343.09;;;20.75;45.68
58686;BME280;44465;53.206;-6.106;2024-01-15T22:06:20;101350.06;;;20.79;45.96
58686;BME280;44465;53.206;-6.106;2024-01-15T22:08:45;101345.28;;;20.86;46.94
58686;BME280;44465;53.206;-6.106;2024-01-15T22:11:11;101356.00;;;20.86;46.80
58686;BME280;44465;53.206;-6.106;2024-01-15T22:13:37;101346.69;;;20.95;47.02
58686;BME280;44465;53.206;-6.106;2024-01-15T22:16:04;101351.59;;;20.85;45.97
58686;BME280;44465;53.206;-6.106;2024-01-15T22:18:29;101346.97;;;20.88;47.49
58686;BME280;44465;53.206;-6.106;2024-01-15T22:20:56;101347.25;;;21.01;47.42
58686;BME280;44465;53.206;-6.106;2024-01-15T22:23:22;101347.25;;;21.01;47.52
58686;BME280;44465;53.206;-6.106;2024-01-15T22:25:48;101338.44;;;20.99;47.73
58686;BME280;44465;53.206;-6.106;2024-01-15T22:28:13;101340.19;;;21.00;47.82
58686;BME280;44465;53.206;-6.106;2024-01-15T22:30:39;101334.97;;;20.97;47.89
58686;BME280;44465;53.206;-6.106;2024-01-15T22:33:05;101333.22;;;20.96;47.64
58686;BME280;44465;53.206;-6.106;2024-01-15T22:35:30;101341.13;;;20.99;47.54
58686;BME280;44465;53.206;-6.106;2024-01-15T22:37:56;101328.00;;;20.93;47.26
58686;BME280;44465;53.206;-6.106;2024-01-15T22:40:22;101333.09;;;20.99;47.37
58686;BME280;44465;53.206;-6.106;2024-01-15T22:42:47;101328.50;;;21.01;47.45
58686;BME280;44465;53.206;-6.106;2024-01-15T22:45:13;101317.88;;;21.00;47.74
58686;BME280;44465;53.206;-6.106;2024-01-15T22:47:39;101320.63;;;20.98;47.75
58686;BME280;44465;53.206;-6.106;2024-01-15T22:50:05;101306.53;;;20.95;47.49
58686;BME280;44465;53.206;-6.106;2024-01-15T22:52:31;101324.88;;;21.02;47.72
58686;BME280;44465;53.206;-6.106;2024-01-15T22:54:56;101292.56;;;20.88;47.51
58686;BME280;44465;53.206;-6.106;2024-01-15T22:57:22;101294.13;;;20.92;47.29
58686;BME280;44465;53.206;-6.106;2024-01-15T22:59:49;101304.41;;;21.01;47.24
58686;BME280;44465;53.206;-6.106;2024-01-15T23:02:15;101317.56;;;21.06;47.28
58686;BME280;44465;53.206;-6.106;2024-01-15T23:04:41;101308.34;;;21.13;47.00
58686;BME280;44465;53.206;-6.106;2024-01-15T23:07:07;101305.06;;;21.06;46.97
58686;BME280;44465;53.206;-6.106;2024-01-15T23:09:33;101308.38;;;21.12;47.11
58686;BME280;44465;53.206;-6.106;2024-01-15T23:11:58;101295.44;;;21.02;46.98
58686;BME280;44465;53.206;-6.106;2024-01-15T23:14:24;101286.78;;;20.97;47.16
58686;BME280;44465;53.206;-6.106;2024-01-15T23:16:50;101283.06;;;21.00;47.15
58686;BME280;44465;53.206;-6.106;2024-01-15T23:19:15;101291.03;;;21.01;47.26
58686;BME280;44465;53.206;-6.106;2024-01-15T23:21:41;101287.50;;;21.01;46.68
58686;BME280;44465;53.206;-6.106;2024-01-15T23:24:06;101293.69;;;21.01;47.15
58686;BME280;44465;53.206;-6.106;2024-01-15T23:26:34;101248.47;;;20.76;46.90
58686;BME280;44465;53.206;-6.106;2024-01-15T23:28:59;101294.50;;;21.03;46.92
58686;BME280;44465;53.206;-6.106;2024-01-15T23:31:27;101271.16;;;20.88;46.90
58686;BME280;44465;53.206;-6.106;2024-01-15T23:33:53;101299.06;;;21.01;46.97
58686;BME280;44465;53.206;-6.106;2024-01-15T23:36:19;101298.13;;;21.02;46.93
58686;BME280;44465;53.206;-6.106;2024-01-15T23:38:45;101294.50;;;21.03;46.87
58686;BME280;44465;53.206;-6.106;2024-01-15T23:41:20;101279.44;;;21.01;46.86
58686;BME280;44465;53.206;-6.106;2024-01-15T23:43:46;101275.03;;;21.00;47.05
58686;BME280;44465;53.206;-6.106;2024-01-15T23:46:16;101265.41;;;20.96;46.85
58686;BME280;44465;53.206;-6.106;2024-01-15T23:48:44;101267.13;;;20.97;47.07
58686;BME280;44465;53.206;-6.106;2024-01-15T23:51:10;101272.34;;;21.00;46.86
58686;BME280;44465;53.206;-6.106;2024-01-15T23:53:35;101256.66;;;20.92;46.84
58686;BME280;44465;53.206;-6.106;2024-01-15T23:56:02;101256.66;;;20.92;47.10
58686;BME280;44465;53.206;-6.106;2024-01-15T23:58:30;101267.38;;;20.92;46.80
